sensor_id;sensor_type;location;lat;lon;timestamp;pressure;altitude;pressure_sealevel;temperature;humidity
65800;BME280;52544;48.116;11.660;2023-05-19T00:01:26;96068.00;;;9.20;100.00
65800;BME280;52544;48.116;11.660;2023-05-19T00:03:53;96066.44;;;9.18;100.00
65800;BME280;52544;48.116;11.660;2023-05-19T00:06:27;96063.28;;;9.13;100.00
65800;BME280;52544;48.116;11.660;2023-05-19T00:08:57;96060.41;;;9.16;100.00
65800;BME280;52544;48.116;11.660;2023-05-19T00:11:24;96064.25;;;9.12;100.00
65800;BME280;52544;48.116;11.660;2023-05-19T00:13:52;96058.13;;;9.11;100.00
65800;BME280;52544;48.116;11.660;2023-05-19T00:16:18;96061.38;;;9.15;100.00
65800;BME280;52544;48.116;11.660;2023-05-19T00:18:44;96051.03;;;9.12;100.00
65800;BME280;52544;48.116;11.660;2023-05-19T00:21:11;96048.53;;;9.10;100.00
65800;BME280;52544;48.116;11.660;2023-05-19T00:23:37;96047.06;;;9.06;100.00
65800;BME280;52544;48.116;11.660;2023-05-19T00:26:02;96045.13;;;9.08;100.00
65800;BME280;52544;48.116;11.660;2023-05-19T00:28:27;96042.28;;;9.11;100.00
65800;BME280;52544;48.116;11.660;2023-05-19T00:30:53;96042.91;;;9.15;100.00
65800;BME280;52544;48.116;11.660;2023-05-19T00:33:19;96039.41;;;9.14;100.00
65800;BME280;52544;48.116;11.660;2023-05-19T00:35:44;96042.91;;;9.15;100.00
65800;BME280;52544;48.116;11.660;2023-05-19T00:38:09;96035.19;;;9.12;100.00
65800;BME280;52544;48.116;11.660;2023-05-19T00:40:35;96035.19;;;9.12;100.00
65800;BME280;52544;48.116;11.660;2023-05-19T00:43:01;96029.28;;;9.08;100.00
65800;BME280;52544;48.116;11.660;2023-05-19T00:45:27;96031.38;;;9.16;100.00
65800;BME280;52544;48.116;11.660;2023-05-19T00:47:53;96022.16;;;9.21;100.00
65800;BME280;52544;48.116;11.660;2023-05-19T00:50:18;96033.91;;;9.17;100.00
65800;BME280;52544;48.116;11.660;2023-05-19T00:52:44;96032.34;;;9.15;100.00
65800;BME280;52544;48.116;11.660;2023-05-19T00:55:10;96018.16;;;9.16;100.00
65800;BME280;52544;48.116;11.660;2023-05-19T00:57:36;96019.69;;;9.07;100.00
65800;BME280;52544;48.116;11.660;2023-05-19T01:00:03;96023.06;;;9.09;100.00
65800;BME280;52544;48.116;11.660;2023-05-19T01:02:29;96013.00;;;9.14;100.00
65800;BME280;52544;48.116;11.660;2023-05-19T01:04:56;96012.88;;;9.16;100.00
65800;BME280;52544;48.116;11.660;2023-05-19T01:07:22;96006.97;;;9.12;100.00
65800;BME280;52544;48.116;11.660;2023-05-19T01:09:50;96012.38;;;9.11;100.00
65800;BME280;52544;48.116;11.660;2023-05-19T01:12:16;96016.38;;;9.16;100.00
65800;BME280;52544;48.116;11.660;2023-05-19T01:14:42;96017.53;;;9.12;100.00
65800;BME280;52544;48.116;11.660;2023-05-19T01:20:25;96021.91;;;9.13;100.00
65800;BME280;52544;48.116;11.660;2023-05-19T01:28:30;96014.22;;;9.21;100.00
65800;BME280;52544;48.116;11.660;2023-05-19T01:31:03;96021.22;;;9.22;100.00
65800;BME280;52544;48.116;11.660;2023-05-19T01:33:32;96019.00;;;9.16;100.00
65800;BME280;52544;48.116;11.660;2023-05-19T01:35:59;96023.44;;;9.16;100.00
65800;BME280;52544;48.116;11.660;2023-05-19T01:38:28;96021.66;;;9.16;100.00
65800;BME280;52544;48.116;11.660;2023-05-19T01:40:54;96024.28;;;9.16;100.00
65800;BME280;52544;48.116;11.660;2023-05-19T01:43:23;96022.81;;;9.12;100.00
65800;BME280;52544;48.116;11.660;2023-05-19T01:45:49;96021.38;;;9.08;100.00
65800;BME280;52544;48.116;11.660;2023-05-19T01:48:16;96021.59;;;9.05;100.00
65800;BME280;52544;48.116;11.660;2023-05-19T01:50:42;96029.41;;;9.07;100.00
65800;BME280;52544;48.116;11.660;2023-05-19T01:53:09;96024.34;;;9.04;100.00
65800;BME280;52544;48.116;11.660;2023-05-19T01:55:42;96027.59;;;9.07;100.00
65800;BME280;52544;48.116;11.660;2023-05-19T01:58:26;96024.84;;;9.09;100.00
65800;BME280;52544;48.116;11.660;2023-05-19T02:04:18;96024.25;;;9.05;100.00
65800;BME280;52544;48.116;11.660;2023-05-19T02:06:54;96022.19;;;9.09;100.00
65800;BME280;52544;48.116;11.660;2023-05-19T02:09:43;96023.28;;;9.06;100.00
65800;BME280;52544;48.116;11.660;2023-05-19T02:12:36;96025.19;;;9.04;100.00
65800;BME280;52544;48.116;11.660;2023-05-19T02:15:15;96021.41;;;8.95;100.00
65800;BME280;52544;48.116;11.660;2023-05-19T02:17:45;96021.19;;;8.98;100.00
65800;BME280;52544;48.116;11.660;2023-05-19T02:20:15;96008.53;;;8.91;100.00
65800;BME280;52544;48.116;11.660;2023-05-19T02:22:41;96009.28;;;8.93;100.00
65800;BME280;52544;48.116;11.660;2023-05-19T02:25:07;96006.88;;;8.90;100.00
65800;BME280;52544;48.116;11.660;2023-05-19T02:27:36;95997.97;;;8.91;100.00
65800;BME280;52544;48.116;11.660;2023-05-19T02:30:06;96004.44;;;8.87;100.00
65800;BME280;52544;48.116;11.660;2023-05-19T02:32:32;95998.31;;;8.86;100.00
65800;BME280;52544;48.116;11.660;2023-05-19T02:34:58;96007.91;;;8.87;100.00
65800;BME280;52544;48.116;11.660;2023-05-19T02:37:24;96002.53;;;8.89;100.00
65800;BME280;52544;48.116;11.660;2023-05-19T02:39:53;96001.78;;;8.87;100.00
65800;BME280;52544;48.116;11.660;2023-05-19T02:42:18;95989.84;;;8.94;100.00
65800;BME280;52544;48.116;11.660;2023-05-19T02:44:44;95996.53;;;8.87;100.00
65800;BME280;52544;48.116;11.660;2023-05-19T02:47:10;95987.44;;;8.91;100.00
65800;BME280;52544;48.116;11.660;2023-05-19T02:49:35;95998.31;;;8.86;100.00
65800;BME280;52544;48.116;11.660;2023-05-19T02:52:04;95989.78;;;8.83;100.00
65800;BME280;52544;48.116;11.660;2023-05-19T02:54:30;95996.84;;;8.82;100.00
65800;BME280;52544;48.116;11.660;2023-05-19T02:56:56;95998.78;;;8.80;100.00
65800;BME280;52544;48.116;11.660;2023-05-19T02:59:22;95997.19;;;8.77;100.00
65800;BME280;52544;48.116;11.660;2023-05-19T03:01:49;95985.47;;;8.82;100.00
65800;BME280;52544;48.116;11.660;2023-05-19T03:04:15;95991.69;;;8.81;100.00
65800;BME280;52544;48.116;11.660;2023-05-19T03:06:40;95985.25;;;8.85;100.00
65800;BME280;52544;48.116;11.660;2023-05-19T03:09:07;95984.75;;;8.80;100.00
65800;BME280;52544;48.116;11.660;2023-05-19T03:11:32;95984.75;;;8.80;100.00
65800;BME280;52544;48.116;11.660;2023-05-19T03:13:58;95983.88;;;8.79;100.00
65800;BME280;52544;48.116;11.660;2023-05-19T03:16:23;95993.16;;;8.85;100.00
65800;BME280;52544;48.116;11.660;2023-05-19T03:18:49;95992.75;;;8.78;100.00
65800;BME280;52544;48.116;11.660;2023-05-19T03:21:15;95988.94;;;8.82;100.00
65800;BME280;52544;48.116;11.660;2023-05-19T03:23:41;95988.53;;;8.75;100.00
65800;BME280;52544;48.116;11.660;2023-05-19T03:26:06;95988.53;;;8.75;100.00
65800;BME280;52544;48.116;11.660;2023-05-19T03:28:31;95998.16;;;8.76;100.00
65800;BME280;52544;48.116;11.660;2023-05-19T03:30:57;95989.25;;;8.77;100.00
65800;BME280;52544;48.116;11.660;2023-05-19T03:33:22;95987.88;;;8.85;100.00
65800;BME280;52544;48.116;11.660;2023-05-19T03:35:48;95988.84;;;8.84;100.00
65800;BME280;52544;48.116;11.660;2023-05-19T03:38:13;95984.81;;;8.78;100.00
65800;BME280;52544;48.116;11.660;2023-05-19T03:40:38;95979.03;;;8.73;100.00
65800;BME280;52544;48.116;11.660;2023-05-19T03:43:05;95980.63;;;8.75;100.00
65800;BME280;52544;48.116;11.660;2023-05-19T03:45:31;95980.44;;;8.66;100.00
65800;BME280;52544;48.116;11.660;2023-05-19T03:47:56;95979.50;;;8.67;100.00
65800;BME280;52544;48.116;11.660;2023-05-19T03:50:22;95980.53;;;8.64;100.00
65800;BME280;52544;48.116;11.660;2023-05-19T03:52:47;95982.00;;;8.68;100.00
65800;BME280;52544;48.116;11.660;2023-05-19T03:55:13;95983.41;;;8.61;100.00
65800;BME280;52544;48.116;11.660;2023-05-19T03:57:44;95979.50;;;8.67;100.00
65800;BME280;52544;48.116;11.660;2023-05-19T04:00:10;95989.19;;;8.66;100.00
65800;BME280;52544;48.116;11.660;2023-05-19T04:02:36;95988.47;;;8.64;100.00
65800;BME280;52544;48.116;11.660;2023-05-19T04:05:02;95990.88;;;8.67;100.00
65800;BME280;52544;48.116;11.660;2023-05-19T04:07:32;95982.22;;;8.65;100.00
65800;BME280;52544;48.116;11.660;2023-05-19T04:09:57;95977.16;;;8.62;100.00
65800;BME280;52544;48.116;11.660;2023-05-19T04:12:22;95987.50;;;8.65;100.00
65800;BME280;52544;48.116;11.660;2023-05-19T04:14:48;95982.72;;;8.70;100.00
65800;BME280;52544;48.116;11.660;2023-05-19T04:17:13;95981.06;;;8.69;100.00
65800;BME280;52544;48.116;11.660;2023-05-19T04:19:39;95981.81;;;8.71;100.00
65800;BME280;52544;48.116;11.660;2023-05-19T04:22:05;95977.03;;;8.76;100.00
65800;BME280;52544;48.116;11.660;2023-05-19T04:24:30;95982.66;;;8.72;100.00
65800;BME280;52544;48.116;11.660;2023-05-19T04:26:56;95986.75;;;8.76;100.00
65800;BME280;52544;48.116;11.660;2023-05-19T04:29:25;95980.63;;;8.75;100.00
65800;BME280;52544;48.116;11.660;2023-05-19T04:31:50;95983.28;;;8.75;100.00
65800;BME280;52544;48.116;11.660;2023-05-19T04:34:16;95982.19;;;8.78;100.00
65800;BME280;52544;48.116;11.660;2023-05-19T04:36:44;95987.47;;;8.78;100.00
65800;BME280;52544;48.116;11.660;2023-05-19T04:39:09;95981.84;;;8.83;100.00
65800;BME280;52544;48.116;11.660;2023-05-19T04:41:36;95987.25;;;8.81;100.00
65800;BME280;52544;48.116;11.660;2023-05-19T04:44:05;95990.31;;;8.88;100.00
65800;BME280;52544;48.116;11.660;2023-05-19T04:46:33;95996.53;;;8.87;100.00
65800;BME280;52544;48.116;11.660;2023-05-19T04:48:58;95986.91;;;8.86;100.00
65800;BME280;52544;48.116;11.660;2023-05-19T04:51:25;95978.03;;;8.87;100.00
65800;BME280;52544;48.116;11.660;2023-05-19T04:53:55;95983.31;;;8.87;100.00
65800;BME280;52544;48.116;11.660;2023-05-19T04:56:20;95984.91;;;8.89;100.00
65800;BME280;52544;48.116;11.660;2023-05-19T04:58:46;95970.63;;;8.92;100.00
65800;BME280;52544;48.116;11.660;2023-05-19T05:01:12;95971.78;;;9.00;100.00
65800;BME280;52544;48.116;11.660;2023-05-19T05:03:40;95968.56;;;9.08;100.00
65800;BME280;52544;48.116;11.660;2023-05-19T05:06:06;95960.00;;;9.05;100.00
65800;BME280;52544;48.116;11.660;2023-05-19T05:08:33;95963.69;;;9.15;100.00
65800;BME280;52544;48.116;11.660;2023-05-19T05:10:58;95953.97;;;9.15;100.00
65800;BME280;52544;48.116;11.660;2023-05-19T05:13:24;95958.19;;;9.18;100.00
65800;BME280;52544;48.116;11.660;2023-05-19T05:15:50;95963.41;;;9.31;100.00
65800;BME280;52544;48.116;11.660;2023-05-19T05:18:18;95972.94;;;9.44;100.00
65800;BME280;52544;48.116;11.660;2023-05-19T05:20:45;95962.72;;;9.40;100.00
65800;BME280;52544;48.116;11.660;2023-05-19T05:23:11;95962.47;;;9.43;100.00
65800;BME280;52544;48.116;11.660;2023-05-19T05:25:42;95954.31;;;9.46;100.00
65800;BME280;52544;48.116;11.660;2023-05-19T05:28:09;95952.91;;;9.53;100.00
65800;BME280;52544;48.116;11.660;2023-05-19T05:30:35;95948.09;;;9.58;100.00
65800;BME280;52544;48.116;11.660;2023-05-19T05:33:01;95948.84;;;9.71;100.00
65800;BME280;52544;48.116;11.660;2023-05-19T05:35:27;95949.34;;;9.76;100.00
65800;BME280;52544;48.116;11.660;2023-05-19T05:37:52;95953.09;;;9.85;100.00
65800;BME280;52544;48.116;11.660;2023-05-19T05:40:18;95951.41;;;9.84;100.00
65800;BME280;52544;48.116;11.660;2023-05-19T05:42:43;95954.66;;;9.88;100.00
65800;BME280;52544;48.116;11.660;2023-05-19T05:45:09;95961.53;;;9.90;100.00
65800;BME280;52544;48.116;11.660;2023-05-19T05:47:34;95967.41;;;9.94;100.00
65800;BME280;52544;48.116;11.660;2023-05-19T05:50:08;95973.91;;;10.01;100.00
65800;BME280;52544;48.116;11.660;2023-05-19T05:52:34;95968.25;;;10.06;100.00
65800;BME280;52544;48.116;11.660;2023-05-19T05:55:00;95965.88;;;10.14;100.00
65800;BME280;52544;48.116;11.660;2023-05-19T05:57:26;95958.19;;;10.22;100.00
65800;BME280;52544;48.116;11.660;2023-05-19T05:59:54;95960.81;;;10.22;100.00
65800;BME280;52544;48.116;11.660;2023-05-19T06:02:19;95963.00;;;10.17;100.00
65800;BME280;52544;48.116;11.660;2023-05-19T06:04:46;95959.53;;;10.27;100.00
65800;BME280;52544;48.116;11.660;2023-05-19T06:07:11;95962.19;;;10.39;100.00
65800;BME280;52544;48.116;11.660;2023-05-19T06:09:36;95957.88;;;10.38;100.00
65800;BME280;52544;48.116;11.660;2023-05-19T06:12:02;95958.56;;;10.51;100.00
65800;BME280;52544;48.116;11.660;2023-05-19T06:14:27;95957.72;;;10.62;100.00
65800;BME280;52544;48.116;11.660;2023-05-19T06:16:53;95954.00;;;10.64;100.00
65800;BME280;52544;48.116;11.660;2023-05-19T06:19:18;95965.78;;;10.60;100.00
65800;BME280;52544;48.116;11.660;2023-05-19T06:21:44;95957.13;;;10.58;100.00
65800;BME280;52544;48.116;11.660;2023-05-19T06:24:10;95969.88;;;10.64;100.00
65800;BME280;52544;48.116;11.660;2023-05-19T06:26:35;95962.63;;;10.77;100.00
65800;BME280;52544;48.116;11.660;2023-05-19T06:29:01;95961.63;;;11.01;100.00
65800;BME280;52544;48.116;11.660;2023-05-19T06:31:27;95960.56;;;11.24;100.00
65800;BME280;52544;48.116;11.660;2023-05-19T06:33:52;95963.78;;;11.39;100.00
65800;BME280;52544;48.116;11.660;2023-05-19T06:36:18;95961.41;;;11.57;100.00
65800;BME280;52544;48.116;11.660;2023-05-19T06:38:43;95953.25;;;11.49;100.00
65800;BME280;52544;48.116;11.660;2023-05-19T06:41:09;95956.81;;;11.59;100.00
65800;BME280;52544;48.116;11.660;2023-05-19T06:43:34;95961.00;;;11.41;100.00
65800;BME280;52544;48.116;11.660;2023-05-19T06:46:00;95960.97;;;11.52;100.00
65800;BME280;52544;48.116;11.660;2023-05-19T06:48:25;95969.69;;;11.43;100.00
65800;BME280;52544;48.116;11.660;2023-05-19T06:50:51;95962.63;;;11.53;100.00
65800;BME280;52544;48.116;11.660;2023-05-19T06:53:18;95959.84;;;11.55;100.00
65800;BME280;52544;48.116;11.660;2023-05-19T06:55:44;95961.03;;;11.62;100.00
65800;BME280;52544;48.116;11.660;2023-05-19T06:58:09;95961.16;;;11.60;100.00
65800;BME280;52544;48.116;11.660;2023-05-19T07:00:35;95958.03;;;11.76;100.00
65800;BME280;52544;48.116;11.660;2023-05-19T07:03:01;95954.97;;;11.92;100.00
65800;BME280;52544;48.116;11.660;2023-05-19T07:05:27;95947.25;;;12.10;100.00
65800;BME280;52544;48.116;11.660;2023-05-19T07:07:52;95949.88;;;12.31;100.00
65800;BME280;52544;48.116;11.660;2023-05-19T07:10:17;95955.63;;;12.36;100.00
65800;BME280;52544;48.116;11.660;2023-05-19T07:12:43;95960.00;;;12.37;100.00
65800;BME280;52544;48.116;11.660;2023-05-19T07:15:08;95955.78;;;12.34;100.00
65800;BME280;52544;48.116;11.660;2023-05-19T07:17:34;95952.66;;;12.19;100.00
65800;BME280;52544;48.116;11.660;2023-05-19T07:19:59;95952.75;;;12.18;100.00
65800;BME280;52544;48.116;11.660;2023-05-19T07:22:25;95955.47;;;12.28;100.00
65800;BME280;52544;48.116;11.660;2023-05-19T07:24:51;95954.78;;;12.05;100.00
65800;BME280;52544;48.116;11.660;2023-05-19T07:27:17;95952.06;;;12.16;100.00
65800;BME280;52544;48.116;11.660;2023-05-19T07:29:42;95953.84;;;12.36;100.00
65800;BME280;52544;48.116;11.660;2023-05-19T07:32:08;95957.31;;;12.67;100.00
65800;BME280;52544;48.116;11.660;2023-05-19T07:34:33;95958.47;;;12.74;100.00
65800;BME280;52544;48.116;11.660;2023-05-19T07:36:58;95949.34;;;12.67;100.00
65800;BME280;52544;48.116;11.660;2023-05-19T07:39:24;95955.34;;;12.69;100.00
65800;BME280;52544;48.116;11.660;2023-05-19T07:41:54;95957.75;;;12.72;100.00
65800;BME280;52544;48.116;11.660;2023-05-19T07:44:20;95946.72;;;12.77;100.00
65800;BME280;52544;48.116;11.660;2023-05-19T07:46:46;95946.44;;;12.80;100.00
65800;BME280;52544;48.116;11.660;2023-05-19T07:49:11;95945.28;;;12.63;100.00
65800;BME280;52544;48.116;11.660;2023-05-19T07:51:37;95947.03;;;12.84;100.00
65800;BME280;52544;48.116;11.660;2023-05-19T07:54:02;95946.22;;;13.12;100.00
65800;BME280;52544;48.116;11.660;2023-05-19T07:56:28;95936.41;;;13.03;100.00
65800;BME280;52544;48.116;11.660;2023-05-19T07:58:53;95950.09;;;12.98;100.00
65800;BME280;52544;48.116;11.660;2023-05-19T08:01:19;95951.91;;;12.79;100.00
65800;BME280;52544;48.116;11.660;2023-05-19T08:03:44;95955.09;;;12.72;100.00
65800;BME280;52544;48.116;11.660;2023-05-19T08:06:10;95953.94;;;12.65;100.00
65800;BME280;52544;48.116;11.660;2023-05-19T08:08:35;95952.63;;;12.50;100.00
65800;BME280;52544;48.116;11.660;2023-05-19T08:11:02;95950.50;;;12.44;100.00
65800;BME280;52544;48.116;11.660;2023-05-19T08:13:28;95955.63;;;12.36;100.00
65800;BME280;52544;48.116;11.660;2023-05-19T08:15:54;95956.44;;;12.26;100.00
65800;BME280;52544;48.116;11.660;2023-05-19T08:18:24;95959.94;;;12.06;100.00
65800;BME280;52544;48.116;11.660;2023-05-19T08:20:49;95957.25;;;11.96;100.00
65800;BME280;52544;48.116;11.660;2023-05-19T08:23:15;95953.69;;;11.86;100.00
65800;BME280;52544;48.116;11.660;2023-05-19T08:25:41;95955.50;;;11.86;100.00
65800;BME280;52544;48.116;11.660;2023-05-19T08:28:07;95945.63;;;11.76;100.00
65800;BME280;52544;48.116;11.660;2023-05-19T08:30:32;95947.59;;;11.74;100.00
65800;BME280;52544;48.116;11.660;2023-05-19T08:32:57;95951.31;;;11.72;100.00
65800;BME280;52544;48.116;11.660;2023-05-19T08:35:23;95945.56;;;11.67;100.00
65800;BME280;52544;48.116;11.660;2023-05-19T08:37:48;95946.41;;;11.67;100.00
65800;BME280;52544;48.116;11.660;2023-05-19T08:40:15;95942.34;;;11.63;100.00
65800;BME280;52544;48.116;11.660;2023-05-19T08:42:42;95950.28;;;11.63;100.00
65800;BME280;52544;48.116;11.660;2023-05-19T08:45:07;95943.56;;;11.59;100.00
65800;BME280;52544;48.116;11.660;2023-05-19T08:47:33;95946.94;;;11.61;100.00
65800;BME280;52544;48.116;11.660;2023-05-19T08:50:04;95942.34;;;11.63;100.00
65800;BME280;52544;48.116;11.660;2023-05-19T08:55:06;95949.38;;;11.53;100.00
65800;BME280;52544;48.116;11.660;2023-05-19T08:57:34;95954.69;;;11.53;100.00
65800;BME280;52544;48.116;11.660;2023-05-19T09:00:01;95951.84;;;11.45;100.00
65800;BME280;52544;48.116;11.660;2023-05-19T09:02:28;95950.41;;;11.41;100.00
65800;BME280;52544;48.116;11.660;2023-05-19T09:04:54;95937.88;;;11.43;100.00
65800;BME280;52544;48.116;11.660;2023-05-19T09:07:21;95942.19;;;11.44;100.00
65800;BME280;52544;48.116;11.660;2023-05-19T09:09:49;95947.38;;;11.45;100.00
65800;BME280;52544;48.116;11.660;2023-05-19T09:12:15;95943.88;;;11.45;100.00
65800;BME280;52544;48.116;11.660;2023-05-19T09:14:40;95947.56;;;11.54;100.00
65800;BME280;52544;48.116;11.660;2023-05-19T09:17:06;95938.78;;;11.53;100.00
65800;BME280;52544;48.116;11.660;2023-05-19T09:19:31;95947.72;;;11.52;100.00
65800;BME280;52544;48.116;11.660;2023-05-19T09:21:58;95948.19;;;11.46;100.00
65800;BME280;52544;48.116;11.660;2023-05-19T09:24:25;95937.59;;;11.46;100.00
65800;BME280;52544;48.116;11.660;2023-05-19T09:26:54;95947.44;;;11.55;100.00
65800;BME280;52544;48.116;11.660;2023-05-19T09:29:19;95942.47;;;11.62;100.00
65800;BME280;52544;48.116;11.660;2023-05-19T09:31:49;95935.81;;;11.67;100.00
65800;BME280;52544;48.116;11.660;2023-05-19T09:34:15;95933.16;;;11.67;100.00
65800;BME280;52544;48.116;11.660;2023-05-19T09:36:41;95937.75;;;11.65;100.00
65800;BME280;52544;48.116;11.660;2023-05-19T09:39:14;95937.50;;;11.68;100.00
65800;BME280;52544;48.116;11.660;2023-05-19T09:41:40;95926.81;;;11.80;100.00
65800;BME280;52544;48.116;11.660;2023-05-19T09:44:05;95919.84;;;11.79;100.00
65800;BME280;52544;48.116;11.660;2023-05-19T09:46:31;95931.44;;;11.77;100.00
65800;BME280;52544;48.116;11.660;2023-05-19T09:49:06;95936.16;;;11.74;100.00
65800;BME280;52544;48.116;11.660;2023-05-19T09:51:34;95931.94;;;11.71;100.00
65800;BME280;52544;48.116;11.660;2023-05-19T09:54:01;95935.56;;;11.70;100.00
65800;BME280;52544;48.116;11.660;2023-05-19T09:56:30;95932.84;;;11.61;100.00
65800;BME280;52544;48.116;11.660;2023-05-19T09:58:58;95939.38;;;11.57;100.00
65800;BME280;52544;48.116;11.660;2023-05-19T10:01:24;95931.88;;;11.62;100.00
65800;BME280;52544;48.116;11.660;2023-05-19T10:03:50;95925.47;;;11.64;100.00
65800;BME280;52544;48.116;11.660;2023-05-19T10:06:16;95926.03;;;11.68;100.00
65800;BME280;52544;48.116;11.660;2023-05-19T10:08:42;95931.72;;;11.63;100.00
65800;BME280;52544;48.116;11.660;2023-05-19T10:11:08;95926.56;;;11.62;100.00
65800;BME280;52544;48.116;11.660;2023-05-19T10:13:35;95926.91;;;11.68;100.00
65800;BME280;52544;48.116;11.660;2023-05-19T10:16:02;95920.47;;;11.71;100.00
65800;BME280;52544;48.116;11.660;2023-05-19T10:18:29;95931.44;;;11.77;100.00
65800;BME280;52544;48.116;11.660;2023-05-19T10:20:55;95928.63;;;11.79;100.00
65800;BME280;52544;48.116;11.660;2023-05-19T10:23:21;95927.78;;;11.79;100.00
65800;BME280;52544;48.116;11.660;2023-05-19T10:25:48;95924.06;;;11.81;100.00
65800;BME280;52544;48.116;11.660;2023-05-19T10:28:16;95929.94;;;11.85;100.00
65800;BME280;52544;48.116;11.660;2023-05-19T10:30:46;95927.19;;;11.86;100.00
65800;BME280;52544;48.116;11.660;2023-05-19T10:33:15;95921.47;;;11.91;100.00
65800;BME280;52544;48.116;11.660;2023-05-19T10:38:30;95921.41;;;11.81;100.00
65800;BME280;52544;48.116;11.660;2023-05-19T10:41:09;95927.47;;;11.93;100.00
65800;BME280;52544;48.116;11.660;2023-05-19T10:46:13;95918.91;;;12.10;100.00
65800;BME280;52544;48.116;11.660;2023-05-19T10:48:43;95915.03;;;12.14;100.00
65800;BME280;52544;48.116;11.660;2023-05-19T10:51:08;95913.09;;;12.16;100.00
65800;BME280;52544;48.116;11.660;2023-05-19T10:53:40;95919.69;;;12.22;100.00
65800;BME280;52544;48.116;11.660;2023-05-19T10:56:05;95916.91;;;12.23;100.00
65800;BME280;52544;48.116;11.660;2023-05-19T11:01:18;95913.84;;;12.28;100.00
65800;BME280;52544;48.116;11.660;2023-05-19T11:03:52;95908.25;;;12.31;100.00
65800;BME280;52544;48.116;11.660;2023-05-19T11:06:31;95916.19;;;12.21;100.00
65800;BME280;52544;48.116;11.660;2023-05-19T11:09:12;95920.03;;;12.08;100.00
65800;BME280;52544;48.116;11.660;2023-05-19T11:14:15;95917.25;;;12.09;100.00
65800;BME280;52544;48.116;11.660;2023-05-19T11:16:49;95912.38;;;12.14;100.00
65800;BME280;52544;48.116;11.660;2023-05-19T11:19:26;95913.97;;;12.26;100.00
65800;BME280;52544;48.116;11.660;2023-05-19T11:21:53;95908.84;;;12.35;100.00
65800;BME280;52544;48.116;11.660;2023-05-19T11:24:39;95903.09;;;12.30;100.00
65800;BME280;52544;48.116;11.660;2023-05-19T11:27:24;95904.94;;;12.39;100.00
65800;BME280;52544;48.116;11.660;2023-05-19T11:29:59;95904.00;;;12.49;100.00
65800;BME280;52544;48.116;11.660;2023-05-19T11:32:30;95910.28;;;12.48;100.00
65800;BME280;52544;48.116;11.660;2023-05-19T11:34:57;95900.22;;;12.52;100.00
65800;BME280;52544;48.116;11.660;2023-05-19T11:37:23;95896.88;;;12.50;100.00
65800;BME280;52544;48.116;11.660;2023-05-19T11:39:48;95904.72;;;12.51;100.00
65800;BME280;52544;48.116;11.660;2023-05-19T11:42:15;95907.09;;;12.55;100.00
65800;BME280;52544;48.116;11.660;2023-05-19T11:44:42;95912.00;;;12.59;100.00
65800;BME280;52544;48.116;11.660;2023-05-19T11:47:10;95923.47;;;12.60;100.00
65800;BME280;52544;48.116;11.660;2023-05-19T11:49:36;95913.81;;;12.49;100.00
65800;BME280;52544;48.116;11.660;2023-05-19T11:52:02;95918.66;;;12.44;100.00
65800;BME280;52544;48.116;11.660;2023-05-19T11:54:30;95918.66;;;12.44;100.00
65800;BME280;52544;48.116;11.660;2023-05-19T11:57:01;95915.31;;;12.42;100.00
65800;BME280;52544;48.116;11.660;2023-05-19T11:59:34;95914.31;;;12.43;100.00
65800;BME280;52544;48.116;11.660;2023-05-19T12:02:01;95916.41;;;12.39;100.00
65800;BME280;52544;48.116;11.660;2023-05-19T12:04:29;95910.69;;;12.44;100.00
65800;BME280;52544;48.116;11.660;2023-05-19T12:06:56;95912.25;;;12.46;100.00
65800;BME280;52544;48.116;11.660;2023-05-19T12:09:22;95910.00;;;12.42;100.00
65800;BME280;52544;48.116;11.660;2023-05-19T12:11:50;95913.88;;;12.38;100.00
65800;BME280;52544;48.116;11.660;2023-05-19T12:14:16;95916.09;;;12.33;100.00
65800;BME280;52544;48.116;11.660;2023-05-19T12:16:42;95912.47;;;12.34;100.00
65800;BME280;52544;48.116;11.660;2023-05-19T12:19:07;95909.81;;;12.34;100.00
65800;BME280;52544;48.116;11.660;2023-05-19T12:21:34;95915.13;;;12.34;100.00
65800;BME280;52544;48.116;11.660;2023-05-19T12:23:59;95915.97;;;12.34;100.00
65800;BME280;52544;48.116;11.660;2023-05-19T12:26:26;95913.16;;;12.36;100.00
65800;BME280;52544;48.116;11.660;2023-05-19T12:28:51;95914.16;;;12.35;100.00
65800;BME280;52544;48.116;11.660;2023-05-19T12:31:18;95913.31;;;12.34;100.00
65800;BME280;52544;48.116;11.660;2023-05-19T12:33:48;95906.63;;;12.40;100.00
65800;BME280;52544;48.116;11.660;2023-05-19T12:36:17;95910.50;;;12.36;100.00
65800;BME280;52544;48.116;11.660;2023-05-19T12:38:43;95915.13;;;12.34;100.00
65800;BME280;52544;48.116;11.660;2023-05-19T12:41:10;95915.69;;;12.28;100.00
65800;BME280;52544;48.116;11.660;2023-05-19T12:43:37;95902.13;;;12.31;100.00
65800;BME280;52544;48.116;11.660;2023-05-19T12:46:12;95911.59;;;12.23;100.00
65800;BME280;52544;48.116;11.660;2023-05-19T12:48:42;95913.53;;;12.21;100.00
65800;BME280;52544;48.116;11.660;2023-05-19T12:51:08;95913.09;;;12.16;100.00
65800;BME280;52544;48.116;11.660;2023-05-19T12:53:35;95905.06;;;12.28;100.00
65800;BME280;52544;48.116;11.660;2023-05-19T12:56:10;95906.19;;;12.35;100.00
65800;BME280;52544;48.116;11.660;2023-05-19T12:58:36;95906.94;;;12.46;100.00
65800;BME280;52544;48.116;11.660;2023-05-19T13:01:02;95900.97;;;12.54;100.00
65800;BME280;52544;48.116;11.660;2023-05-19T13:03:27;95900.81;;;12.65;100.00
65800;BME280;52544;48.116;11.660;2023-05-19T13:05:53;95894.16;;;12.71;100.00
65800;BME280;52544;48.116;11.660;2023-05-19T13:08:20;95889.84;;;12.80;100.00
65800;BME280;52544;48.116;11.660;2023-05-19T13:10:46;95893.22;;;12.91;100.00